createdAt,value
2022-11-16T00:01:42.591Z,7.67
2022-11-16T00:04:11.949Z,7.63
2022-11-16T00:06:39.462Z,7.62
2022-11-16T00:09:26.329Z,7.59
2022-11-16T00:11:56.667Z,7.56
2022-11-16T00:14:24.330Z,7.44
2022-11-16T00:16:51.617Z,7.49
2022-11-16T00:19:18.538Z,7.45
2022-11-16T00:21:45.169Z,7.46
2022-11-16T00:24:15.321Z,7.45
2022-11-16T00:26:42.326Z,7.42
2022-11-16T00:29:26.057Z,7.39
2022-11-16T00:31:54.160Z,7.41
2022-11-16T00:34:22.370Z,7.38
2022-11-16T00:36:49.324Z,7.39
2022-11-16T00:39:17.272Z,7.40
2022-11-16T00:41:44.832Z,7.34
2022-11-16T00:44:11.998Z,7.38
2022-11-16T00:46:38.974Z,7.35
2022-11-16T00:49:06.173Z,7.39
2022-11-16T00:51:34.529Z,7.43
2022-11-16T00:54:01.763Z,7.45
2022-11-16T00:56:28.316Z,7.41
2022-11-16T00:58:54.873Z,7.40
2022-11-16T01:01:21.550Z,7.42
2022-11-16T01:03:48.269Z,7.43
2022-11-16T01:06:16.217Z,7.43
2022-11-16T01:08:44.690Z,7.43
2022-11-16T01:11:34.473Z,7.38
2022-11-16T01:14:05.167Z,7.39
2022-11-16T01:16:32.240Z,7.35
2022-11-16T01:18:58.878Z,7.33
2022-11-16T01:21:25.627Z,7.27
2022-11-16T01:23:52.535Z,7.28
2022-11-16T01:26:19.404Z,7.24
2022-11-16T01:28:46.140Z,7.23
2022-11-16T01:31:12.854Z,7.26
2022-11-16T01:33:39.555Z,7.26
2022-11-16T01:36:14.541Z,7.27
2022-11-16T01:38:43.524Z,7.29
2022-11-16T01:41:14.745Z,7.27
2022-11-16T01:44:00.101Z,7.23
2022-11-16T01:46:27.841Z,7.24
2022-11-16T01:49:04.155Z,7.26
2022-11-16T01:51:33.054Z,7.25
2022-11-16T01:54:02.701Z,7.22
2022-11-16T01:56:32.551Z,7.23
2022-11-16T01:58:59.350Z,7.22
2022-11-16T02:01:25.971Z,7.23
2022-11-16T02:03:52.554Z,7.24
2022-11-16T02:09:49.564Z,7.21
2022-11-16T02:20:59.092Z,7.15
2022-11-16T02:32:12.142Z,7.16
2022-11-16T02:34:45.222Z,7.11
2022-11-16T02:37:17.593Z,7.18
2022-11-16T02:39:47.658Z,7.15
2022-11-16T02:42:22.153Z,7.16
2022-11-16T02:44:51.648Z,7.19
2022-11-16T02:47:23.079Z,7.17
2022-11-16T02:49:56.333Z,7.19
2022-11-16T02:52:23.773Z,7.12
2022-11-16T02:54:50.343Z,7.07
2022-11-16T02:59:57.484Z,7.09
2022-11-16T03:02:51.338Z,7.06
2022-11-16T03:05:32.028Z,7.08
2022-11-16T03:11:09.259Z,7.10
2022-11-16T03:13:37.524Z,7.05
2022-11-16T03:16:11.744Z,7.02
2022-11-16T03:18:40.689Z,6.98
2022-11-16T03:24:20.644Z,6.97
2022-11-16T03:29:32.789Z,6.97
2022-11-16T03:32:10.692Z,6.92
2022-11-16T03:34:38.864Z,6.89
2022-11-16T03:37:06.457Z,6.93
2022-11-16T03:39:37.788Z,6.87
2022-11-16T03:42:09.425Z,6.90
2022-11-16T03:44:37.124Z,6.90
2022-11-16T03:47:03.693Z,6.89
2022-11-16T03:49:31.457Z,6.88
2022-11-16T03:51:58.846Z,6.85
2022-11-16T03:54:25.456Z,6.75
2022-11-16T03:56:51.993Z,6.79
2022-11-16T03:59:18.536Z,6.77
2022-11-16T04:01:45.178Z,6.74
2022-11-16T04:04:31.926Z,6.77
2022-11-16T04:07:18.500Z,6.74
2022-11-16T04:10:04.975Z,6.74
2022-11-16T04:12:51.810Z,6.78
2022-11-16T04:15:38.275Z,6.78
2022-11-16T04:18:25.015Z,6.77
2022-11-16T04:21:11.832Z,6.82
2022-11-16T04:23:58.303Z,6.78
2022-11-16T04:26:45.136Z,6.73
2022-11-16T04:29:13.693Z,6.69
2022-11-16T04:32:00.190Z,6.66
2022-11-16T04:34:46.693Z,6.64
2022-11-16T04:37:35.705Z,6.66
2022-11-16T04:40:02.463Z,6.65
2022-11-16T04:42:28.998Z,6.62
2022-11-16T04:45:15.478Z,6.56
2022-11-16T04:47:42.063Z,6.58
2022-11-16T04:50:09.221Z,6.58
2022-11-16T04:52:35.832Z,6.52
2022-11-16T04:55:02.431Z,6.43
2022-11-16T04:57:28.964Z,6.42
2022-11-16T04:59:55.550Z,6.45
2022-11-16T05:02:22.165Z,6.41
2022-11-16T05:04:48.885Z,6.43
2022-11-16T05:07:15.773Z,6.42
2022-11-16T05:09:44.936Z,6.39
2022-11-16T05:12:14.883Z,6.35
2022-11-16T05:14:42.841Z,6.34
2022-11-16T05:17:09.848Z,6.36
2022-11-16T05:19:56.376Z,6.37
2022-11-16T05:22:23.496Z,6.37
2022-11-16T05:24:50.276Z,6.37
2022-11-16T05:27:18.160Z,6.36
2022-11-16T05:29:45.625Z,6.32
2022-11-16T05:32:13.459Z,6.32
2022-11-16T05:34:40.202Z,6.27
2022-11-16T05:37:07.371Z,6.31
2022-11-16T05:39:33.999Z,6.28
2022-11-16T05:42:01.005Z,6.31
2022-11-16T05:44:27.601Z,6.29
2022-11-16T05:46:55.241Z,6.33
2022-11-16T05:49:22.309Z,6.33
2022-11-16T05:51:49.071Z,6.35
2022-11-16T05:54:21.009Z,6.34
2022-11-16T05:56:49.335Z,6.25
2022-11-16T05:59:18.636Z,6.30
2022-11-16T06:01:45.698Z,6.31
2022-11-16T06:04:13.025Z,6.30
2022-11-16T06:06:39.654Z,6.33
2022-11-16T06:09:06.678Z,6.30
2022-11-16T06:11:35.930Z,6.26
2022-11-16T06:14:02.877Z,6.28
2022-11-16T06:16:29.423Z,6.30
2022-11-16T06:18:55.958Z,6.28
2022-11-16T06:21:22.562Z,6.31
2022-11-16T06:23:49.214Z,6.32
2022-11-16T06:26:15.806Z,6.32
2022-11-16T06:28:42.509Z,6.32
2022-11-16T06:31:09.143Z,6.34
2022-11-16T06:33:35.839Z,6.27
2022-11-16T06:36:02.445Z,6.31
2022-11-16T06:38:29.331Z,6.26
2022-11-16T06:40:57.978Z,6.33
2022-11-16T06:43:26.048Z,6.35
2022-11-16T06:45:55.464Z,6.35
2022-11-16T06:48:22.723Z,6.41
2022-11-16T06:50:50.808Z,6.43
2022-11-16T06:53:18.159Z,6.42
2022-11-16T06:55:44.755Z,6.47
2022-11-16T06:58:11.317Z,6.43
2022-11-16T07:00:38.140Z,6.49
2022-11-16T07:03:04.976Z,6.48
2022-11-16T07:05:32.426Z,6.54
2022-11-16T07:07:59.074Z,6.59
2022-11-16T07:10:25.944Z,6.61
2022-11-16T07:12:52.497Z,6.62
2022-11-16T07:15:19.639Z,6.66
2022-11-16T07:17:47.011Z,6.65
2022-11-16T07:20:13.565Z,6.63
2022-11-16T07:22:40.111Z,6.67
2022-11-16T07:25:07.357Z,6.67
2022-11-16T07:27:33.939Z,6.62
2022-11-16T07:30:02.215Z,6.66
2022-11-16T07:32:31.070Z,6.66
2022-11-16T07:34:59.385Z,6.64
2022-11-16T07:37:26.252Z,6.63
2022-11-16T07:39:52.846Z,6.64
2022-11-16T07:42:19.404Z,6.66
2022-11-16T07:44:45.946Z,6.69
2022-11-16T07:47:12.535Z,6.69
2022-11-16T07:49:39.155Z,6.72
2022-11-16T07:52:09.439Z,6.75
2022-11-16T07:54:36.747Z,6.81
2022-11-16T07:57:03.386Z,6.90
2022-11-16T07:59:29.918Z,6.93
2022-11-16T08:01:56.711Z,6.94
2022-11-16T08:04:23.512Z,7.02
2022-11-16T08:06:51.790Z,7.11
2022-11-16T08:09:18.580Z,7.21
2022-11-16T08:11:45.195Z,7.26
2022-11-16T08:14:12.060Z,7.35
2022-11-16T08:16:38.779Z,7.38
2022-11-16T08:19:05.365Z,7.44
2022-11-16T08:21:31.919Z,7.47
2022-11-16T08:23:59.112Z,7.56
2022-11-16T08:26:26.099Z,7.63
2022-11-16T08:28:53.935Z,7.66
2022-11-16T08:31:24.216Z,7.73
2022-11-16T08:33:52.070Z,7.73
2022-11-16T08:36:19.253Z,7.79
2022-11-16T08:38:48.481Z,7.81
2022-11-16T08:41:15.701Z,7.91
2022-11-16T08:43:42.811Z,8.04
2022-11-16T08:46:10.513Z,8.20
2022-11-16T08:48:37.858Z,8.27
2022-11-16T08:51:22.252Z,8.60
2022-11-16T08:53:49.794Z,9.09
2022-11-16T08:56:18.596Z,9.81
2022-11-16T08:58:47.430Z,10.48
2022-11-16T09:01:17.221Z,11.06
2022-11-16T09:03:44.953Z,11.24
2022-11-16T09:06:12.755Z,11.30
2022-11-16T09:08:41.944Z,11.37
2022-11-16T09:11:11.635Z,11.84
2022-11-16T09:13:38.589Z,12.19
2022-11-16T09:16:05.594Z,12.48
2022-11-16T09:18:32.926Z,12.98
2022-11-16T09:20:59.657Z,13.75
2022-11-16T09:23:26.342Z,14.48
2022-11-16T09:25:54.551Z,14.59
2022-11-16T09:28:22.159Z,14.67
2022-11-16T09:30:51.016Z,15.14
2022-11-16T09:33:17.793Z,15.65
2022-11-16T09:35:44.487Z,16.27
2022-11-16T09:38:14.865Z,16.75
2022-11-16T09:40:47.869Z,16.91
2022-11-16T09:43:44.151Z,16.51
2022-11-16T09:46:35.817Z,15.87
2022-11-16T09:49:17.385Z,15.55
2022-11-16T09:51:49.092Z,15.03
2022-11-16T09:54:21.289Z,14.76
2022-11-16T09:56:51.720Z,14.39
2022-11-16T09:59:24.770Z,14.04
2022-11-16T10:02:16.511Z,13.49
2022-11-16T10:05:10.610Z,12.98
2022-11-16T10:07:44.762Z,12.72
2022-11-16T10:10:16.980Z,12.41
2022-11-16T10:21:37.913Z,11.46
2022-11-16T10:29:50.688Z,11.18
2022-11-16T10:32:57.070Z,11.04
2022-11-16T10:38:04.196Z,11.38
2022-11-16T10:40:38.950Z,11.40
2022-11-16T10:43:24.603Z,11.31
2022-11-16T10:46:00.476Z,11.21
2022-11-16T10:51:24.226Z,11.08
2022-11-16T10:53:53.055Z,11.13
2022-11-16T10:56:27.500Z,11.03
2022-11-16T11:06:59.750Z,11.08
2022-11-16T11:09:36.851Z,11.22
2022-11-16T11:12:34.447Z,11.24
2022-11-16T11:17:47.828Z,11.59
2022-11-16T11:25:54.105Z,11.28
2022-11-16T11:33:48.672Z,11.27
2022-11-16T11:36:20.563Z,11.34
2022-11-16T11:44:58.786Z,11.22
2022-11-16T11:55:36.245Z,10.98
2022-11-16T11:58:04.650Z,10.98
2022-11-16T12:00:58.150Z,10.94
2022-11-16T12:06:22.559Z,11.01
2022-11-16T12:19:49.781Z,10.90
2022-11-16T12:30:24.166Z,11.47
2022-11-16T12:33:30.574Z,11.28
2022-11-16T13:00:14.794Z,11.11
2022-11-16T13:05:58.416Z,11.44
2022-11-16T13:08:43.531Z,11.18
2022-11-16T13:11:19.728Z,11.03
2022-11-16T13:13:53.635Z,11.03
2022-11-16T13:16:21.996Z,10.99
2022-11-16T13:18:48.689Z,10.94
2022-11-16T13:24:04.735Z,10.89
2022-11-16T13:26:55.230Z,10.76
2022-11-16T13:29:48.234Z,10.78
2022-11-16T13:32:42.784Z,10.71
2022-11-16T13:35:15.819Z,10.71
2022-11-16T13:40:25.344Z,10.63
2022-11-16T13:48:28.355Z,10.51
2022-11-16T13:50:58.519Z,10.56
2022-11-16T13:56:16.048Z,10.47
2022-11-16T13:58:48.056Z,10.41
2022-11-16T14:01:15.797Z,10.38
2022-11-16T14:09:00.159Z,10.40
2022-11-16T14:11:42.943Z,10.39
2022-11-16T14:14:13.545Z,10.36
2022-11-16T14:25:06.734Z,10.71
2022-11-16T14:27:50.597Z,10.43
2022-11-16T14:30:22.815Z,10.38
2022-11-16T14:32:52.718Z,10.36
2022-11-16T14:35:40.002Z,10.29
2022-11-16T14:38:17.937Z,10.22
2022-11-16T14:40:47.336Z,10.32
2022-11-16T14:43:20.598Z,10.27
2022-11-16T14:45:53.385Z,10.25
2022-11-16T14:48:22.242Z,10.30
2022-11-16T14:51:03.633Z,10.24
2022-11-16T14:53:32.208Z,10.24
2022-11-16T14:56:10.869Z,10.24
2022-11-16T14:58:38.363Z,10.28
2022-11-16T15:01:12.769Z,10.25
2022-11-16T15:03:48.493Z,10.24
2022-11-16T15:06:16.202Z,10.25
2022-11-16T15:08:48.632Z,10.19
2022-11-16T15:11:47.154Z,10.16
2022-11-16T15:14:18.745Z,10.19
2022-11-16T15:16:51.790Z,10.17
2022-11-16T15:19:19.023Z,10.23
2022-11-16T15:21:55.820Z,10.20
2022-11-16T15:24:30.368Z,10.19
2022-11-16T15:27:09.566Z,10.13
2022-11-16T15:29:36.788Z,10.19
2022-11-16T15:32:03.685Z,10.17
2022-11-16T15:34:31.278Z,10.21
2022-11-16T15:36:57.817Z,10.18
2022-11-16T15:39:31.998Z,10.09
2022-11-16T15:42:03.478Z,10.08
2022-11-16T15:44:31.076Z,10.05
2022-11-16T15:46:58.950Z,10.15
2022-11-16T15:52:02.114Z,10.10
2022-11-16T15:54:51.083Z,10.05
2022-11-16T15:57:19.237Z,9.93
2022-11-16T15:59:51.803Z,9.95
2022-11-16T16:02:20.525Z,9.94
2022-11-16T16:04:47.286Z,9.97
2022-11-16T16:07:36.033Z,9.91
2022-11-16T16:12:57.359Z,9.96
2022-11-16T16:18:01.823Z,9.94
2022-11-16T16:20:31.116Z,9.94
2022-11-16T16:23:07.739Z,9.92
2022-11-16T16:25:34.824Z,9.82
2022-11-16T16:28:01.971Z,9.87
2022-11-16T16:30:30.053Z,9.88
2022-11-16T16:32:56.718Z,9.78
2022-11-16T16:35:25.285Z,9.82
2022-11-16T16:37:57.543Z,9.79
2022-11-16T16:40:24.279Z,9.68
2022-11-16T16:42:51.238Z,9.64
2022-11-16T16:45:21.597Z,9.64
2022-11-16T16:47:48.244Z,9.63
2022-11-16T16:50:14.960Z,9.64
2022-11-16T16:52:41.509Z,9.60
2022-11-16T16:55:08.469Z,9.57
2022-11-16T16:57:35.031Z,9.52
2022-11-16T17:00:01.710Z,9.50
2022-11-16T17:02:28.382Z,9.42
2022-11-16T17:04:55.077Z,9.49
2022-11-16T17:07:21.659Z,9.44
2022-11-16T17:09:48.339Z,9.48
2022-11-16T17:12:14.862Z,9.37
2022-11-16T17:14:41.401Z,9.45
2022-11-16T17:17:07.952Z,9.45
2022-11-16T17:19:34.532Z,9.45
2022-11-16T17:22:01.076Z,9.42
2022-11-16T17:24:27.596Z,9.42
2022-11-16T17:26:54.145Z,9.45
2022-11-16T17:29:20.671Z,9.44
2022-11-16T17:31:47.713Z,9.44
2022-11-16T17:34:14.611Z,9.45
2022-11-16T17:36:42.206Z,9.42
2022-11-16T17:39:09.060Z,9.40
2022-11-16T17:41:35.645Z,9.45
2022-11-16T17:44:02.436Z,9.44
2022-11-16T17:46:29.198Z,9.42
2022-11-16T17:48:56.446Z,9.46
2022-11-16T17:51:25.054Z,9.37
2022-11-16T17:53:52.193Z,9.46
2022-11-16T17:56:21.678Z,9.43
2022-11-16T17:58:50.333Z,9.42
2022-11-16T18:01:17.080Z,9.41
2022-11-16T18:03:43.651Z,9.43
2022-11-16T18:06:13.630Z,9.44
2022-11-16T18:08:41.424Z,9.37
2022-11-16T18:11:10.999Z,9.33
2022-11-16T18:13:38.418Z,9.39
2022-11-16T18:16:08.177Z,9.38
2022-11-16T18:18:35.113Z,9.35
2022-11-16T18:21:02.301Z,9.37
2022-11-16T18:23:31.044Z,9.39
2022-11-16T18:25:57.697Z,9.37
2022-11-16T18:28:24.277Z,9.39
2022-11-16T18:30:51.397Z,9.36
2022-11-16T18:33:18.581Z,9.36
2022-11-16T18:35:45.116Z,9.40
2022-11-16T18:38:13.169Z,9.38
2022-11-16T18:40:40.867Z,9.38
2022-11-16T18:43:13.090Z,9.43
2022-11-16T18:45:39.663Z,9.45
2022-11-16T18:48:06.306Z,9.46
2022-11-16T18:50:32.950Z,9.42
2022-11-16T18:52:59.493Z,9.48
2022-11-16T18:55:26.067Z,9.51
2022-11-16T18:57:52.579Z,9.55
2022-11-16T19:00:19.516Z,9.51
2022-11-16T19:02:46.056Z,9.52
2022-11-16T19:05:12.702Z,9.43
2022-11-16T19:07:39.312Z,9.55
2022-11-16T19:10:07.602Z,9.54
2022-11-16T19:12:34.135Z,9.51
2022-11-16T19:15:00.687Z,9.55
2022-11-16T19:17:27.612Z,9.53
2022-11-16T19:19:54.264Z,9.56
2022-11-16T19:22:20.904Z,9.57
2022-11-16T19:24:47.497Z,9.56
2022-11-16T19:27:14.061Z,9.52
2022-11-16T19:29:41.217Z,9.51
2022-11-16T19:32:07.807Z,9.55
2022-11-16T19:34:34.332Z,9.51
2022-11-16T19:37:01.072Z,9.54
2022-11-16T19:39:27.629Z,9.48
2022-11-16T19:41:54.167Z,9.51
2022-11-16T19:44:20.745Z,9.55
2022-11-16T19:46:47.395Z,9.52
2022-11-16T19:49:19.987Z,9.52
2022-11-16T19:51:46.908Z,9.55
2022-11-16T19:54:14.896Z,9.61
2022-11-16T19:56:42.807Z,9.60
2022-11-16T19:59:10.052Z,9.66
2022-11-16T20:01:36.649Z,9.68
2022-11-16T20:04:03.702Z,9.67
2022-11-16T20:09:09.594Z,9.70
2022-11-16T20:11:37.125Z,9.61
2022-11-16T20:14:06.010Z,9.63
2022-11-16T20:16:38.674Z,9.67
2022-11-16T20:19:08.704Z,9.67
2022-11-16T20:21:39.760Z,9.70
2022-11-16T20:24:09.024Z,9.73
2022-11-16T20:26:37.258Z,9.74
2022-11-16T20:29:03.938Z,9.72
2022-11-16T20:31:32.683Z,9.71
2022-11-16T20:34:01.599Z,9.75
2022-11-16T20:36:30.098Z,9.76
2022-11-16T20:38:57.539Z,9.76
2022-11-16T20:41:26.091Z,9.76
2022-11-16T20:43:54.471Z,9.79
2022-11-16T20:46:26.160Z,9.77
2022-11-16T20:48:52.974Z,9.71
2022-11-16T20:51:20.621Z,9.77
2022-11-16T20:53:48.480Z,9.76
2022-11-16T20:56:16.581Z,9.77
2022-11-16T20:58:43.432Z,9.77
2022-11-16T21:01:14.205Z,9.77
2022-11-16T21:03:42.489Z,9.79
2022-11-16T21:06:09.017Z,9.80
2022-11-16T21:08:37.253Z,9.79
2022-11-16T21:11:14.522Z,9.81
2022-11-16T21:14:01.293Z,9.80
2022-11-16T21:16:27.883Z,9.81
2022-11-16T21:18:55.607Z,9.82
2022-11-16T21:21:22.265Z,9.80
2022-11-16T21:23:52.375Z,9.82
2022-11-16T21:26:21.620Z,9.83
2022-11-16T21:28:48.229Z,9.82
2022-11-16T21:31:18.215Z,9.82
2022-11-16T21:33:45.693Z,9.77
2022-11-16T21:36:15.121Z,9.79
2022-11-16T21:38:42.126Z,9.78
2022-11-16T21:41:10.873Z,9.78
2022-11-16T21:43:40.292Z,9.77
2022-11-16T21:46:11.568Z,9.77
2022-11-16T21:48:38.624Z,9.75
2022-11-16T21:51:07.267Z,9.75
2022-11-16T21:53:34.692Z,9.73
2022-11-16T21:56:02.107Z,9.71
2022-11-16T21:58:28.838Z,9.69
2022-11-16T22:00:57.022Z,9.69
2022-11-16T22:03:25.686Z,9.70
2022-11-16T22:06:15.024Z,9.70
2022-11-16T22:08:42.024Z,9.68
2022-11-16T22:11:09.618Z,9.62
2022-11-16T22:13:37.376Z,9.64
2022-11-16T22:16:06.764Z,9.60
2022-11-16T22:18:33.635Z,9.59
2022-11-16T22:21:01.084Z,9.60
2022-11-16T22:23:27.850Z,9.58
2022-11-16T22:25:54.686Z,9.52
2022-11-16T22:28:21.704Z,9.46
2022-11-16T22:30:51.647Z,9.45
2022-11-16T22:33:18.651Z,9.37
2022-11-16T22:35:47.012Z,9.34
2022-11-16T22:38:13.539Z,9.32
2022-11-16T22:40:40.049Z,9.35
2022-11-16T22:43:06.577Z,9.36
2022-11-16T22:45:33.089Z,9.37
2022-11-16T22:47:59.657Z,9.35
2022-11-16T22:50:26.216Z,9.34
2022-11-16T22:52:52.794Z,9.32
2022-11-16T22:55:19.358Z,9.25
2022-11-16T22:57:45.903Z,9.25
2022-11-16T23:00:13.664Z,9.21
2022-11-16T23:02:40.353Z,9.22
2022-11-16T23:05:07.228Z,9.21
2022-11-16T23:07:33.930Z,9.17
2022-11-16T23:10:00.696Z,9.19
2022-11-16T23:12:47.160Z,9.19
2022-11-16T23:15:34.112Z,9.13
2022-11-16T23:18:00.681Z,9.16
2022-11-16T23:20:47.166Z,9.11
2022-11-16T23:23:39.591Z,9.10
2022-11-16T23:26:34.350Z,9.11
2022-11-16T23:29:02.829Z,9.08
2022-11-16T23:31:29.396Z,9.05
2022-11-16T23:33:55.941Z,9.03
2022-11-16T23:36:22.477Z,8.99
2022-11-16T23:38:49.113Z,8.93
2022-11-16T23:41:35.564Z,8.97
2022-11-16T23:44:02.204Z,8.89
2022-11-16T23:46:31.338Z,8.94
2022-11-16T23:48:58.045Z,8.93
2022-11-16T23:51:25.372Z,8.92
2022-11-16T23:53:52.889Z,8.87
2022-11-16T23:56:21.022Z,8.89
2022-11-16T23:58:48.253Z,8.87
